createdAt,value
2018-09-09T00:00:15.587Z,99.90
2018-09-09T00:01:19.898Z,99.90
2018-09-09T00:02:24.092Z,99.90
2018-09-09T00:03:28.455Z,99.90
2018-09-09T00:04:32.799Z,99.90
2018-09-09T00:05:37.047Z,99.90
2018-09-09T00:06:41.240Z,99.90
2018-09-09T00:07:45.352Z,99.90
2018-09-09T00:08:49.540Z,99.90
2018-09-09T00:09:53.729Z,99.90
2018-09-09T00:10:58.575Z,99.90
2018-09-09T00:12:02.837Z,99.90
2018-09-09T00:13:07.106Z,99.90
2018-09-09T00:14:11.427Z,99.90
2018-09-09T00:15:15.632Z,99.90
2018-09-09T00:16:19.991Z,99.90
2018-09-09T00:17:24.411Z,99.90
2018-09-09T00:18:28.602Z,99.90
2018-09-09T00:19:32.912Z,99.90
2018-09-09T00:20:37.138Z,99.90
2018-09-09T00:21:41.348Z,99.90
2018-09-09T00:22:45.628Z,99.90
2018-09-09T00:23:49.940Z,99.90
2018-09-09T00:24:54.206Z,99.90
2018-09-09T00:25:58.557Z,99.90
2018-09-09T00:27:02.761Z,99.90
2018-09-09T00:28:06.837Z,99.90
2018-09-09T00:29:11.299Z,99.90
2018-09-09T00:30:15.684Z,99.90
2018-09-09T00:31:20.190Z,99.90
2018-09-09T00:32:24.421Z,99.90
2018-09-09T00:33:28.517Z,99.90
2018-09-09T00:34:32.812Z,99.90
2018-09-09T00:35:37.800Z,99.90
2018-09-09T00:36:42.182Z,99.90
2018-09-09T00:37:46.551Z,99.90
2018-09-09T00:38:50.637Z,99.90
2018-09-09T00:39:54.771Z,99.90
2018-09-09T00:40:59.066Z,99.90
2018-09-09T00:42:03.242Z,99.90
2018-09-09T00:43:07.471Z,99.90
2018-09-09T00:44:11.727Z,99.90
2018-09-09T00:45:16.505Z,99.90
2018-09-09T00:46:20.995Z,99.90
2018-09-09T00:47:25.170Z,99.90
2018-09-09T00:48:29.530Z,99.90
2018-09-09T00:49:39.180Z,99.90
2018-09-09T00:50:49.035Z,99.90
2018-09-09T00:51:58.798Z,99.90
2018-09-09T00:53:08.234Z,99.90
2018-09-09T00:54:12.329Z,99.90
2018-09-09T00:55:16.775Z,99.90
2018-09-09T00:56:21.088Z,99.90
2018-09-09T00:57:25.334Z,99.90
2018-09-09T00:58:29.694Z,99.90
2018-09-09T00:59:34.377Z,99.90
2018-09-09T01:00:43.976Z,99.90
2018-09-09T01:01:48.042Z,99.90
2018-09-09T01:02:52.419Z,99.90
2018-09-09T01:03:57.337Z,99.90
2018-09-09T01:05:01.759Z,99.90
2018-09-09T01:06:06.130Z,99.90
2018-09-09T01:07:10.378Z,99.90
2018-09-09T01:08:14.829Z,99.90
2018-09-09T01:09:19.151Z,99.90
2018-09-09T01:10:23.466Z,99.90
2018-09-09T01:11:27.602Z,99.90
2018-09-09T01:12:32.114Z,99.90
2018-09-09T01:13:36.449Z,99.90
2018-09-09T01:14:40.872Z,99.90
2018-09-09T01:15:45.486Z,99.90
2018-09-09T01:16:49.677Z,99.90
2018-09-09T01:17:54.104Z,99.90
2018-09-09T01:18:58.651Z,99.90
2018-09-09T01:20:02.925Z,99.90
2018-09-09T01:21:07.289Z,99.90
2018-09-09T01:22:11.572Z,99.90
2018-09-09T01:23:15.785Z,99.90
2018-09-09T01:24:19.933Z,99.90
2018-09-09T01:25:24.359Z,99.90
2018-09-09T01:26:28.667Z,99.90
2018-09-09T01:27:33.042Z,99.90
2018-09-09T01:28:37.371Z,99.90
2018-09-09T01:29:41.440Z,99.90
2018-09-09T01:30:45.865Z,99.90
2018-09-09T01:31:50.190Z,99.90
2018-09-09T01:32:54.642Z,99.90
2018-09-09T01:33:58.906Z,99.90
2018-09-09T01:35:03.528Z,99.90
2018-09-09T01:36:07.831Z,99.90
2018-09-09T01:37:12.127Z,99.90
2018-09-09T01:38:16.916Z,99.90
2018-09-09T01:39:21.260Z,99.90
2018-09-09T01:40:25.674Z,99.90
2018-09-09T01:41:29.851Z,99.90
2018-09-09T01:42:34.088Z,99.90
2018-09-09T01:43:38.334Z,99.90
2018-09-09T01:44:42.678Z,99.90
2018-09-09T01:45:46.909Z,99.90
2018-09-09T01:46:51.538Z,99.90
2018-09-09T01:47:55.869Z,99.90
2018-09-09T01:49:00.073Z,99.90
2018-09-09T01:50:04.558Z,99.90
2018-09-09T01:51:09.290Z,99.90
2018-09-09T01:52:13.695Z,99.90
2018-09-09T01:53:18.199Z,99.90
2018-09-09T01:54:22.415Z,99.90
2018-09-09T01:55:26.914Z,99.90
2018-09-09T01:56:31.178Z,99.90
2018-09-09T01:57:35.478Z,99.90
2018-09-09T01:58:39.706Z,99.90
2018-09-09T01:59:43.867Z,99.90
2018-09-09T02:00:48.087Z,99.90
2018-09-09T02:01:52.466Z,99.90
2018-09-09T02:02:56.714Z,99.90
2018-09-09T02:04:01.569Z,99.90
2018-09-09T02:05:05.888Z,99.90
2018-09-09T02:06:10.461Z,99.90
2018-09-09T02:07:15.527Z,99.90
2018-09-09T02:08:19.664Z,99.90
2018-09-09T02:09:23.917Z,99.90
2018-09-09T02:10:31.156Z,99.90
2018-09-09T02:11:35.517Z,99.90
2018-09-09T02:12:39.760Z,99.90
2018-09-09T02:13:43.890Z,99.90
2018-09-09T02:14:48.198Z,99.90
2018-09-09T02:15:52.533Z,99.90
2018-09-09T02:16:57.121Z,99.90
2018-09-09T02:18:01.304Z,99.90
2018-09-09T02:19:05.763Z,99.90
2018-09-09T02:20:10.290Z,99.90
2018-09-09T02:21:14.534Z,99.90
2018-09-09T02:22:19.024Z,99.90
2018-09-09T02:23:23.303Z,99.90
2018-09-09T02:24:27.840Z,99.90
2018-09-09T02:25:32.132Z,99.90
2018-09-09T02:26:36.286Z,99.90
2018-09-09T02:27:40.717Z,99.90
2018-09-09T02:28:44.877Z,99.90
2018-09-09T02:29:48.981Z,99.90
2018-09-09T02:30:53.181Z,99.90
2018-09-09T02:31:57.528Z,99.90
2018-09-09T02:33:01.779Z,99.90
2018-09-09T02:34:06.133Z,99.90
2018-09-09T02:35:10.341Z,99.90
2018-09-09T02:36:14.499Z,99.90
2018-09-09T02:37:18.981Z,99.90
2018-09-09T02:38:23.157Z,99.90
2018-09-09T02:39:27.442Z,99.90
2018-09-09T02:40:31.751Z,99.90
2018-09-09T02:41:36.373Z,99.90
2018-09-09T02:42:40.495Z,99.90
2018-09-09T02:43:44.830Z,99.90
2018-09-09T02:44:49.058Z,99.90
2018-09-09T02:45:53.522Z,99.90
2018-09-09T02:46:58.351Z,99.90
2018-09-09T02:48:02.591Z,99.90
2018-09-09T02:49:06.990Z,99.90
2018-09-09T02:50:11.366Z,99.90
2018-09-09T02:51:15.708Z,99.90
2018-09-09T02:52:20.060Z,99.90
2018-09-09T02:53:25.211Z,99.90
2018-09-09T02:54:29.620Z,99.90
2018-09-09T02:55:38.131Z,99.90
2018-09-09T02:56:42.299Z,99.90
2018-09-09T02:57:46.690Z,99.90
2018-09-09T02:58:51.102Z,99.90
2018-09-09T02:59:55.642Z,99.90
2018-09-09T03:01:00.001Z,99.90
2018-09-09T03:02:04.495Z,99.90
2018-09-09T03:03:08.659Z,99.90
2018-09-09T03:04:12.977Z,99.90
2018-09-09T03:05:17.306Z,99.90
2018-09-09T03:06:21.641Z,99.90
2018-09-09T03:07:26.174Z,99.90
2018-09-09T03:08:30.578Z,99.90
2018-09-09T03:09:34.757Z,99.90
2018-09-09T03:10:39.786Z,99.90
2018-09-09T03:11:44.011Z,99.90
2018-09-09T03:12:48.564Z,99.90
2018-09-09T03:13:53.002Z,99.90
2018-09-09T03:14:57.595Z,99.90
2018-09-09T03:16:01.711Z,99.90
2018-09-09T03:17:05.770Z,99.90
2018-09-09T03:18:09.836Z,99.90
2018-09-09T03:19:13.890Z,99.90
2018-09-09T03:20:18.225Z,99.90
2018-09-09T03:21:22.530Z,99.90
2018-09-09T03:22:27.147Z,99.90
2018-09-09T03:23:31.517Z,99.90
2018-09-09T03:24:35.798Z,99.90
2018-09-09T03:25:39.970Z,99.90
2018-09-09T03:26:44.164Z,99.90
2018-09-09T03:27:48.827Z,99.90
2018-09-09T03:28:53.061Z,99.90
2018-09-09T03:29:57.670Z,99.90
2018-09-09T03:31:01.863Z,99.90
2018-09-09T03:32:06.126Z,99.90
2018-09-09T03:33:10.426Z,99.90
2018-09-09T03:34:14.638Z,99.90
2018-09-09T03:35:18.860Z,99.90
2018-09-09T03:36:23.346Z,99.90
2018-09-09T03:37:27.838Z,99.90
2018-09-09T03:38:32.170Z,99.90
2018-09-09T03:39:36.391Z,99.90
2018-09-09T03:40:40.649Z,99.90
2018-09-09T03:41:45.092Z,99.90
2018-09-09T03:42:49.338Z,99.90
2018-09-09T03:43:53.951Z,99.90
2018-09-09T03:44:58.198Z,99.90
2018-09-09T03:46:02.725Z,99.90
2018-09-09T03:47:06.993Z,99.90
2018-09-09T03:48:11.228Z,99.90
2018-09-09T03:49:15.418Z,99.90
2018-09-09T03:50:19.653Z,99.90
2018-09-09T03:51:24.229Z,99.90
2018-09-09T03:52:28.317Z,99.90
2018-09-09T03:53:33.042Z,99.90
2018-09-09T03:54:37.186Z,99.90
2018-09-09T03:55:41.574Z,99.90
2018-09-09T03:56:45.859Z,99.90
2018-09-09T03:57:50.201Z,99.90
2018-09-09T03:58:54.507Z,99.90
2018-09-09T03:59:58.788Z,99.90
2018-09-09T04:01:03.164Z,99.90
2018-09-09T04:02:07.601Z,99.90
2018-09-09T04:03:12.117Z,99.90
2018-09-09T04:04:16.850Z,99.90
2018-09-09T04:05:21.837Z,99.90
2018-09-09T04:06:26.512Z,99.90
2018-09-09T04:07:30.857Z,99.90
2018-09-09T04:08:35.074Z,99.90
2018-09-09T04:09:39.563Z,99.90
2018-09-09T04:10:43.958Z,99.90
2018-09-09T04:11:48.122Z,99.90
2018-09-09T04:12:52.524Z,99.90
2018-09-09T04:13:56.898Z,99.90
2018-09-09T04:15:01.423Z,99.90
2018-09-09T04:16:06.037Z,99.90
2018-09-09T04:17:10.332Z,99.90
2018-09-09T04:18:14.788Z,99.90
2018-09-09T04:19:19.727Z,99.90
2018-09-09T04:20:24.052Z,99.90
2018-09-09T04:21:28.176Z,99.90
2018-09-09T04:22:32.815Z,99.90
2018-09-09T04:23:37.393Z,99.90
2018-09-09T04:24:41.866Z,99.90
2018-09-09T04:25:46.226Z,99.90
2018-09-09T04:26:50.650Z,99.90
2018-09-09T04:27:54.957Z,99.90
2018-09-09T04:28:59.360Z,99.90
2018-09-09T04:30:03.771Z,99.90
2018-09-09T04:31:08.220Z,99.90
2018-09-09T04:32:13.052Z,99.90
2018-09-09T04:33:17.211Z,99.90
2018-09-09T04:34:21.605Z,99.90
2018-09-09T04:35:25.825Z,99.90
2018-09-09T04:36:30.118Z,99.90
2018-09-09T04:37:34.585Z,99.90
2018-09-09T04:38:39.072Z,99.90
2018-09-09T04:39:43.368Z,99.90
2018-09-09T04:40:47.709Z,99.90
2018-09-09T04:41:52.069Z,99.90
2018-09-09T04:42:56.684Z,99.90
2018-09-09T04:44:00.853Z,99.90
2018-09-09T04:45:05.146Z,99.90
2018-09-09T04:46:09.647Z,99.90
2018-09-09T04:47:13.685Z,99.90
2018-09-09T04:48:17.862Z,99.90
2018-09-09T04:49:22.184Z,99.90
2018-09-09T04:50:26.464Z,99.90
2018-09-09T04:51:31.093Z,99.90
2018-09-09T04:52:35.409Z,99.90
2018-09-09T04:53:39.763Z,99.90
2018-09-09T04:54:44.124Z,99.90
2018-09-09T04:55:48.366Z,99.90
2018-09-09T04:56:52.526Z,99.90
2018-09-09T04:57:56.986Z,99.90
2018-09-09T04:59:01.328Z,99.90
2018-09-09T05:00:06.375Z,99.90
2018-09-09T05:01:10.647Z,99.90
2018-09-09T05:02:14.888Z,99.90
2018-09-09T05:03:19.142Z,99.90
2018-09-09T05:04:23.389Z,99.90
2018-09-09T05:05:27.528Z,99.90
2018-09-09T05:06:31.764Z,99.90
2018-09-09T05:07:35.967Z,99.90
2018-09-09T05:08:40.429Z,99.90
2018-09-09T05:09:44.905Z,99.90
2018-09-09T05:10:49.263Z,99.90
2018-09-09T05:11:53.778Z,99.90
2018-09-09T05:12:57.931Z,99.90
2018-09-09T05:14:02.624Z,99.90
2018-09-09T05:15:06.915Z,99.90
2018-09-09T05:16:11.198Z,99.90
2018-09-09T05:17:15.506Z,99.90
2018-09-09T05:18:19.812Z,99.90
2018-09-09T05:19:24.319Z,99.90
2018-09-09T05:20:28.745Z,99.90
2018-09-09T05:21:32.881Z,99.90
2018-09-09T05:22:37.434Z,99.90
2018-09-09T05:23:41.758Z,99.90
2018-09-09T05:24:46.331Z,99.90
2018-09-09T05:25:50.499Z,99.90
2018-09-09T05:26:54.876Z,99.90
2018-09-09T05:27:59.146Z,99.90
2018-09-09T05:29:03.510Z,99.90
2018-09-09T05:30:08.321Z,99.90
2018-09-09T05:31:12.539Z,99.90
2018-09-09T05:32:16.774Z,99.90
2018-09-09T05:33:21.046Z,99.90
2018-09-09T05:34:25.266Z,99.90
2018-09-09T05:35:29.420Z,99.90
2018-09-09T05:36:33.515Z,99.90
2018-09-09T05:37:37.817Z,99.90
2018-09-09T05:38:42.132Z,99.90
2018-09-09T05:39:46.224Z,99.90
2018-09-09T05:40:50.474Z,99.90
2018-09-09T05:41:54.588Z,99.90
2018-09-09T05:42:58.791Z,99.90
2018-09-09T05:44:03.023Z,99.90
2018-09-09T05:45:07.485Z,99.90
2018-09-09T05:46:11.802Z,99.90
2018-09-09T05:47:16.057Z,99.90
2018-09-09T05:48:20.287Z,99.90
2018-09-09T05:49:24.853Z,99.90
2018-09-09T05:50:29.196Z,99.90
2018-09-09T05:51:33.394Z,99.90
2018-09-09T05:52:37.545Z,99.90
2018-09-09T05:53:41.720Z,99.90
2018-09-09T05:54:45.971Z,99.90
2018-09-09T05:55:50.394Z,99.90
2018-09-09T05:56:54.613Z,99.90
2018-09-09T05:58:05.994Z,99.90
2018-09-09T05:59:10.198Z,99.90
2018-09-09T06:00:14.402Z,99.90
2018-09-09T06:01:18.667Z,99.90
2018-09-09T06:02:22.869Z,99.90
2018-09-09T06:03:26.998Z,99.90
2018-09-09T06:04:31.150Z,99.90
2018-09-09T06:05:35.558Z,99.90
2018-09-09T06:06:40.046Z,99.90
2018-09-09T06:07:44.443Z,99.90
2018-09-09T06:08:49.159Z,99.90
2018-09-09T06:09:53.583Z,99.90
2018-09-09T06:10:57.818Z,99.90
2018-09-09T06:12:02.101Z,99.90
2018-09-09T06:13:06.248Z,99.90
2018-09-09T06:14:10.805Z,99.90
2018-09-09T06:15:15.011Z,99.90
2018-09-09T06:16:19.458Z,99.90
2018-09-09T06:17:23.801Z,99.90
2018-09-09T06:18:28.485Z,99.90
2018-09-09T06:19:32.934Z,99.90
2018-09-09T06:20:37.202Z,99.90
2018-09-09T06:21:41.531Z,99.90
2018-09-09T06:22:45.802Z,99.90
2018-09-09T06:23:50.078Z,99.90
2018-09-09T06:24:54.287Z,99.90
2018-09-09T06:25:58.473Z,99.90
2018-09-09T06:27:02.747Z,99.90
2018-09-09T06:28:06.937Z,99.90
2018-09-09T06:29:11.111Z,99.90
2018-09-09T06:30:15.703Z,99.90
2018-09-09T06:31:19.861Z,99.90
2018-09-09T06:32:24.060Z,99.90
2018-09-09T06:33:28.350Z,99.90
2018-09-09T06:34:32.799Z,99.90
2018-09-09T06:35:36.931Z,99.90
2018-09-09T06:36:41.055Z,99.90
2018-09-09T06:37:45.186Z,99.90
2018-09-09T06:38:49.423Z,99.90
2018-09-09T06:39:53.836Z,99.90
2018-09-09T06:40:58.111Z,99.90
2018-09-09T06:42:02.710Z,99.90
2018-09-09T06:43:07.247Z,99.90
2018-09-09T06:44:11.430Z,99.90
2018-09-09T06:45:15.702Z,99.90
2018-09-09T06:46:20.235Z,99.90
2018-09-09T06:47:24.901Z,99.90
2018-09-09T06:48:29.316Z,99.90
2018-09-09T06:49:33.582Z,99.90
2018-09-09T06:50:37.886Z,99.90
2018-09-09T06:51:42.053Z,99.90
2018-09-09T06:52:46.320Z,99.90
2018-09-09T06:53:50.857Z,99.90
2018-09-09T06:54:55.074Z,99.90
2018-09-09T06:55:59.453Z,99.90
2018-09-09T06:57:04.121Z,99.90
2018-09-09T06:58:08.329Z,99.90
2018-09-09T06:59:12.807Z,99.90
2018-09-09T07:00:17.049Z,99.90
2018-09-09T07:01:21.212Z,99.90
2018-09-09T07:02:25.445Z,99.90
2018-09-09T07:03:29.693Z,99.90
2018-09-09T07:04:33.963Z,99.90
2018-09-09T07:05:38.381Z,99.90
2018-09-09T07:06:42.918Z,99.90
2018-09-09T07:07:47.053Z,99.90
2018-09-09T07:08:51.478Z,99.90
2018-09-09T07:09:56.028Z,99.90
2018-09-09T07:11:00.728Z,99.90
2018-09-09T07:12:04.880Z,99.90
2018-09-09T07:13:08.922Z,99.90
2018-09-09T07:14:13.148Z,99.90
2018-09-09T07:15:17.403Z,99.90
2018-09-09T07:16:21.625Z,99.90
2018-09-09T07:17:26.430Z,99.90
2018-09-09T07:18:30.685Z,99.90
2018-09-09T07:19:34.968Z,99.90
2018-09-09T07:20:39.225Z,99.90
2018-09-09T07:21:43.357Z,99.90
2018-09-09T07:22:47.828Z,99.90
2018-09-09T07:23:52.147Z,99.90
2018-09-09T07:24:56.406Z,99.90
2018-09-09T07:26:00.760Z,99.90
2018-09-09T07:27:04.817Z,99.90
2018-09-09T07:28:09.125Z,99.90
2018-09-09T07:29:13.438Z,99.90
2018-09-09T07:30:17.759Z,99.90
2018-09-09T07:31:22.200Z,99.90
2018-09-09T07:32:26.412Z,99.90
2018-09-09T07:33:30.901Z,99.90
2018-09-09T07:34:35.433Z,99.90
2018-09-09T07:35:39.950Z,99.90
2018-09-09T07:36:44.231Z,99.90
2018-09-09T07:37:48.510Z,99.90
2018-09-09T07:38:52.929Z,99.90
2018-09-09T07:39:57.309Z,99.90
2018-09-09T07:41:01.580Z,99.90
2018-09-09T07:42:05.713Z,99.90
2018-09-09T07:43:09.910Z,99.90
2018-09-09T07:44:14.689Z,99.90
2018-09-09T07:45:18.823Z,99.90
2018-09-09T07:46:24.119Z,99.90
2018-09-09T07:47:28.547Z,99.90
2018-09-09T07:48:33.306Z,99.90
2018-09-09T07:49:37.566Z,99.90
2018-09-09T07:50:42.415Z,99.90
2018-09-09T07:51:46.815Z,99.90
2018-09-09T07:52:51.073Z,99.90
2018-09-09T07:53:55.599Z,99.90
2018-09-09T07:54:59.816Z,99.90
2018-09-09T07:56:03.918Z,99.90
2018-09-09T07:57:08.314Z,99.90
2018-09-09T07:58:12.467Z,99.90
2018-09-09T07:59:16.846Z,99.90
2018-09-09T08:00:21.147Z,99.90
2018-09-09T08:01:25.365Z,99.90
2018-09-09T08:02:29.794Z,99.90
2018-09-09T08:03:34.052Z,99.90
2018-09-09T08:04:38.273Z,99.90
2018-09-09T08:05:42.925Z,99.90
2018-09-09T08:06:47.240Z,99.90
2018-09-09T08:07:51.691Z,99.90
2018-09-09T08:08:56.025Z,99.90
2018-09-09T08:10:00.337Z,99.90
2018-09-09T08:11:04.703Z,99.90
2018-09-09T08:12:09.397Z,99.90
2018-09-09T08:13:13.562Z,99.90
2018-09-09T08:14:18.004Z,99.90
2018-09-09T08:15:22.105Z,99.90
2018-09-09T08:16:26.577Z,99.90
2018-09-09T08:17:30.837Z,99.90
2018-09-09T08:18:35.132Z,99.90
2018-09-09T08:19:39.385Z,99.90
2018-09-09T08:20:43.697Z,99.90
2018-09-09T08:21:47.975Z,99.90
2018-09-09T08:22:52.129Z,99.90
2018-09-09T08:23:56.821Z,99.90
2018-09-09T08:25:01.174Z,99.90
2018-09-09T08:26:06.013Z,99.90
2018-09-09T08:27:10.563Z,99.90
2018-09-09T08:28:15.003Z,99.90
2018-09-09T08:29:19.391Z,99.90
2018-09-09T08:30:23.743Z,99.90
2018-09-09T08:31:27.902Z,99.90
2018-09-09T08:32:32.127Z,99.90
2018-09-09T08:33:36.374Z,99.90
2018-09-09T08:34:40.839Z,99.90
2018-09-09T08:35:45.092Z,99.90
2018-09-09T08:36:49.444Z,99.90
2018-09-09T08:37:53.981Z,99.90
2018-09-09T08:38:58.319Z,99.90
2018-09-09T08:40:02.570Z,99.90
2018-09-09T08:41:07.002Z,99.90
2018-09-09T08:42:11.492Z,99.90
2018-09-09T08:43:15.710Z,99.90
2018-09-09T08:44:19.959Z,99.90
2018-09-09T08:45:24.582Z,99.90
2018-09-09T08:46:28.892Z,99.50
2018-09-09T08:47:33.197Z,99.60
2018-09-09T08:48:37.477Z,99.40
2018-09-09T08:49:41.658Z,99.40
2018-09-09T08:50:46.273Z,99.20
2018-09-09T08:51:50.937Z,99.10
2018-09-09T08:52:55.174Z,98.70
2018-09-09T08:53:59.329Z,98.80
2018-09-09T08:55:03.856Z,99.20
2018-09-09T08:56:08.188Z,99.00
2018-09-09T08:57:12.604Z,99.00
2018-09-09T08:58:16.948Z,99.00
2018-09-09T08:59:21.058Z,99.10
2018-09-09T09:00:25.537Z,99.10
2018-09-09T09:01:29.855Z,99.00
2018-09-09T09:02:34.423Z,99.30
2018-09-09T09:03:38.639Z,99.40
2018-09-09T09:04:42.876Z,99.00
2018-09-09T09:05:47.081Z,98.80
2018-09-09T09:06:51.381Z,98.60
2018-09-09T09:07:55.715Z,98.60
2018-09-09T09:08:59.837Z,98.40
2018-09-09T09:10:04.106Z,98.20
2018-09-09T09:11:08.422Z,98.30
2018-09-09T09:12:13.173Z,97.80
2018-09-09T09:13:17.605Z,97.50
2018-09-09T09:14:22.017Z,97.30
2018-09-09T09:15:26.705Z,97.20
2018-09-09T09:16:31.120Z,97.10
2018-09-09T09:17:35.433Z,97.30
2018-09-09T09:18:39.766Z,97.40
2018-09-09T09:19:43.865Z,97.20
2018-09-09T09:20:48.182Z,96.80
2018-09-09T09:21:52.734Z,96.70
2018-09-09T09:22:57.042Z,96.70
2018-09-09T09:24:01.245Z,96.80
2018-09-09T09:25:05.461Z,97.10
2018-09-09T09:26:09.821Z,97.20
2018-09-09T09:27:14.168Z,96.90
2018-09-09T09:28:18.950Z,96.70
2018-09-09T09:29:23.082Z,96.60
2018-09-09T09:30:27.213Z,96.30
2018-09-09T09:31:31.620Z,96.20
2018-09-09T09:32:36.446Z,96.30
2018-09-09T09:33:40.660Z,96.40
2018-09-09T09:34:45.121Z,96.50
2018-09-09T09:35:50.520Z,96.60
2018-09-09T09:36:54.641Z,96.50
2018-09-09T09:37:58.865Z,96.60
2018-09-09T09:39:04.520Z,96.50
2018-09-09T09:40:08.688Z,96.50
2018-09-09T09:41:13.130Z,96.40
2018-09-09T09:42:17.281Z,96.10
2018-09-09T09:43:21.412Z,96.30
2018-09-09T09:44:25.639Z,96.10
2018-09-09T09:45:29.886Z,96.20
2018-09-09T09:46:34.227Z,96.30
2018-09-09T09:47:38.463Z,95.90
2018-09-09T09:48:42.581Z,95.70
2018-09-09T09:49:46.944Z,95.50
2018-09-09T09:50:51.134Z,95.20
2018-09-09T09:51:55.226Z,94.40
2018-09-09T09:52:59.471Z,94.50
2018-09-09T09:54:03.873Z,94.70
2018-09-09T09:55:08.375Z,94.30
2018-09-09T09:56:12.553Z,94.10
2018-09-09T09:57:16.943Z,94.00
2018-09-09T09:58:21.169Z,93.70
2018-09-09T09:59:25.406Z,93.40
2018-09-09T10:00:35.044Z,93.50
2018-09-09T10:01:39.287Z,93.80
2018-09-09T10:02:43.325Z,93.70
2018-09-09T10:03:47.430Z,93.90
2018-09-09T10:04:51.614Z,93.70
2018-09-09T10:05:55.835Z,93.60
2018-09-09T10:07:00.118Z,93.70
2018-09-09T10:08:04.569Z,93.50
2018-09-09T10:09:08.747Z,93.10
2018-09-09T10:10:12.839Z,92.90
2018-09-09T10:11:17.995Z,93.10
2018-09-09T10:12:22.498Z,93.00
2018-09-09T10:13:26.604Z,93.10
2018-09-09T10:14:30.745Z,92.80
2018-09-09T10:15:35.192Z,92.60
2018-09-09T10:16:39.498Z,92.50
2018-09-09T10:17:43.878Z,92.40
2018-09-09T10:18:48.199Z,92.20
2018-09-09T10:19:52.593Z,92.20
2018-09-09T10:20:57.001Z,92.20
2018-09-09T10:22:01.210Z,91.60
2018-09-09T10:23:05.465Z,91.10
2018-09-09T10:24:09.760Z,91.20
2018-09-09T10:25:14.111Z,91.30
2018-09-09T10:26:18.235Z,91.20
2018-09-09T10:27:22.543Z,91.00
2018-09-09T10:28:26.666Z,90.60
2018-09-09T10:29:30.865Z,90.80
2018-09-09T10:30:35.046Z,90.70
2018-09-09T10:31:39.417Z,91.00
2018-09-09T10:32:43.662Z,91.00
2018-09-09T10:33:47.924Z,90.70
2018-09-09T10:34:52.197Z,90.70
2018-09-09T10:35:56.365Z,90.60
2018-09-09T10:37:00.677Z,90.50
2018-09-09T10:38:04.803Z,90.60
2018-09-09T10:39:10.658Z,90.40
2018-09-09T10:40:14.981Z,90.40
2018-09-09T10:41:19.441Z,90.40
2018-09-09T10:42:23.664Z,90.30
2018-09-09T10:43:27.907Z,90.40
2018-09-09T10:44:32.160Z,90.50
2018-09-09T10:45:36.636Z,90.50
2018-09-09T10:46:41.026Z,90.30
2018-09-09T10:47:45.281Z,90.30
2018-09-09T10:48:49.697Z,90.30
2018-09-09T10:49:54.050Z,90.00
2018-09-09T10:50:58.178Z,90.20
2018-09-09T10:52:02.347Z,90.00
2018-09-09T10:53:06.686Z,89.20
2018-09-09T10:54:10.968Z,89.10
2018-09-09T10:55:15.473Z,89.00
2018-09-09T10:56:19.622Z,89.70
2018-09-09T10:57:24.182Z,90.00
2018-09-09T10:58:28.650Z,90.30
2018-09-09T10:59:32.789Z,89.60
2018-09-09T11:00:37.014Z,90.00
2018-09-09T11:01:41.158Z,90.30
2018-09-09T11:02:45.620Z,90.00
2018-09-09T11:03:49.821Z,90.00
2018-09-09T11:04:54.337Z,90.00
2018-09-09T11:05:58.479Z,89.90
2018-09-09T11:07:03.041Z,90.00
2018-09-09T11:08:07.061Z,90.30
2018-09-09T11:09:11.540Z,90.50
2018-09-09T11:10:15.671Z,90.40
2018-09-09T11:11:20.000Z,90.20
2018-09-09T11:12:31.140Z,88.50
2018-09-09T11:13:35.401Z,88.00
2018-09-09T11:14:39.663Z,87.70
2018-09-09T11:15:44.082Z,87.00
2018-09-09T11:16:48.356Z,86.20
2018-09-09T11:17:52.717Z,86.50
2018-09-09T11:18:56.865Z,87.10
2018-09-09T11:20:01.024Z,87.30
2018-09-09T11:21:05.352Z,86.50
2018-09-09T11:22:09.806Z,86.20
2018-09-09T11:23:14.090Z,84.80
2018-09-09T11:24:18.465Z,85.60
2018-09-09T11:25:22.740Z,84.60
2018-09-09T11:26:27.154Z,84.30
2018-09-09T11:27:31.511Z,83.70
2018-09-09T11:28:35.880Z,83.70
2018-09-09T11:29:40.132Z,82.80
2018-09-09T11:30:44.392Z,82.70
2018-09-09T11:31:48.616Z,83.00
2018-09-09T11:32:52.926Z,84.00
2018-09-09T11:33:57.242Z,84.10
2018-09-09T11:35:01.496Z,84.10
2018-09-09T11:36:05.788Z,83.40
2018-09-09T11:37:10.129Z,83.10
2018-09-09T11:38:14.329Z,83.80
2018-09-09T11:39:18.552Z,84.30
2018-09-09T11:40:22.805Z,84.20
2018-09-09T11:41:27.265Z,84.10
2018-09-09T11:42:31.575Z,84.00
2018-09-09T11:43:35.999Z,85.40
2018-09-09T11:44:40.386Z,84.40
2018-09-09T11:45:44.672Z,83.10
2018-09-09T11:46:49.069Z,82.90
2018-09-09T11:47:53.269Z,83.10
2018-09-09T11:48:57.439Z,82.70
2018-09-09T11:50:01.729Z,82.90
2018-09-09T11:51:06.102Z,83.50
2018-09-09T11:52:10.549Z,83.70
2018-09-09T11:53:14.807Z,83.50
2018-09-09T11:54:18.853Z,83.80
2018-09-09T11:55:23.063Z,82.60
2018-09-09T11:56:27.574Z,81.90
2018-09-09T11:57:31.794Z,81.80
2018-09-09T11:58:35.975Z,81.60
2018-09-09T11:59:40.605Z,81.20
2018-09-09T12:00:44.733Z,81.60
2018-09-09T12:01:49.063Z,82.40
2018-09-09T12:02:53.390Z,82.70
2018-09-09T12:03:58.037Z,82.70
2018-09-09T12:05:02.604Z,83.10
2018-09-09T12:06:07.141Z,83.40
2018-09-09T12:07:11.550Z,83.70
2018-09-09T12:08:15.985Z,82.80
2018-09-09T12:09:20.176Z,82.80
2018-09-09T12:10:24.567Z,83.10
2018-09-09T12:11:28.914Z,83.20
2018-09-09T12:12:33.098Z,84.20
2018-09-09T12:13:37.496Z,84.80
2018-09-09T12:14:41.733Z,83.10
2018-09-09T12:15:45.858Z,84.00
2018-09-09T12:16:50.154Z,84.50
2018-09-09T12:17:54.369Z,84.20
2018-09-09T12:18:58.601Z,82.40
2018-09-09T12:20:02.904Z,81.80
2018-09-09T12:21:07.044Z,82.10
2018-09-09T12:22:11.201Z,82.20
2018-09-09T12:23:15.481Z,82.80
2018-09-09T12:24:19.698Z,83.00
2018-09-09T12:25:24.090Z,82.90
2018-09-09T12:26:28.467Z,83.20
2018-09-09T12:27:32.890Z,82.50
2018-09-09T12:28:37.373Z,82.50
2018-09-09T12:29:41.730Z,82.10
2018-09-09T12:30:45.939Z,82.10
2018-09-09T12:31:50.159Z,82.30
2018-09-09T12:32:54.601Z,82.20
2018-09-09T12:33:58.922Z,82.40
2018-09-09T12:35:03.496Z,83.10
2018-09-09T12:36:08.145Z,83.60
2018-09-09T12:37:12.345Z,83.40
2018-09-09T12:38:16.418Z,84.30
2018-09-09T12:39:20.697Z,84.60
2018-09-09T12:40:25.104Z,84.20
2018-09-09T12:41:29.367Z,84.80
2018-09-09T12:42:33.843Z,84.60
2018-09-09T12:43:43.478Z,85.70
2018-09-09T12:44:53.320Z,85.30
2018-09-09T12:46:02.785Z,86.20
2018-09-09T12:47:12.195Z,86.20
2018-09-09T12:48:22.006Z,84.80
2018-09-09T12:49:26.468Z,84.00
2018-09-09T12:50:30.621Z,85.60
2018-09-09T12:51:34.941Z,86.50
2018-09-09T12:52:39.294Z,86.40
2018-09-09T12:53:43.412Z,86.50
2018-09-09T12:54:47.489Z,87.00
2018-09-09T12:55:51.648Z,87.80
2018-09-09T12:56:55.915Z,87.20
2018-09-09T12:58:00.192Z,86.80
2018-09-09T12:59:04.333Z,86.80
2018-09-09T13:00:08.920Z,87.00
2018-09-09T13:01:13.363Z,87.30
2018-09-09T13:02:17.604Z,85.90
2018-09-09T13:03:21.752Z,84.00
2018-09-09T13:04:25.864Z,83.70
2018-09-09T13:05:30.216Z,83.90
2018-09-09T13:06:34.611Z,84.50
2018-09-09T13:07:38.927Z,84.40
2018-09-09T13:08:43.195Z,84.20
2018-09-09T13:09:47.534Z,84.30
2018-09-09T13:10:51.726Z,84.30
2018-09-09T13:11:56.060Z,83.80
2018-09-09T13:13:05.727Z,84.60
2018-09-09T13:14:09.897Z,84.90
2018-09-09T13:15:14.029Z,85.10
2018-09-09T13:16:18.315Z,85.20
2018-09-09T13:17:22.744Z,85.20
2018-09-09T13:18:27.356Z,85.10
2018-09-09T13:19:31.671Z,84.60
2018-09-09T13:20:35.897Z,82.70
2018-09-09T13:21:40.383Z,82.30
2018-09-09T13:22:44.474Z,82.60
2018-09-09T13:23:48.705Z,82.50
2018-09-09T13:24:52.909Z,82.10
2018-09-09T13:25:57.190Z,81.70
2018-09-09T13:27:01.294Z,81.40
2018-09-09T13:28:05.459Z,81.00
2018-09-09T13:29:10.062Z,80.60
2018-09-09T13:30:14.224Z,80.80
2018-09-09T13:31:18.309Z,80.70
2018-09-09T13:32:22.565Z,79.60
2018-09-09T13:33:26.754Z,79.50
2018-09-09T13:34:30.861Z,79.70
2018-09-09T13:35:35.069Z,79.60
2018-09-09T13:36:39.445Z,80.10
2018-09-09T13:37:43.805Z,80.40
2018-09-09T13:38:48.200Z,81.80
2018-09-09T13:39:52.646Z,81.10
2018-09-09T13:40:56.816Z,81.20
2018-09-09T13:42:01.311Z,80.60
2018-09-09T13:43:05.827Z,79.00
2018-09-09T13:44:10.250Z,78.60
2018-09-09T13:45:14.386Z,78.50
2018-09-09T13:46:18.511Z,77.10
2018-09-09T13:47:22.910Z,77.00
2018-09-09T13:48:27.140Z,76.70
2018-09-09T13:49:31.496Z,76.20